createdAt,value
2022-10-17T00:02:17.415Z,45.90
2022-10-17T00:12:17.400Z,44.60
2022-10-17T00:22:17.405Z,40.90
2022-10-17T00:32:17.411Z,48.00
2022-10-17T00:42:17.424Z,48.10
2022-10-17T00:52:17.423Z,40.40
2022-10-17T01:02:17.431Z,46.10
2022-10-17T01:12:17.428Z,51.30
2022-10-17T01:22:17.427Z,51.70
2022-10-17T01:32:17.511Z,49.10
2022-10-17T01:42:17.434Z,55.70
2022-10-17T01:52:17.456Z,45.20
2022-10-17T02:02:17.456Z,51.80
2022-10-17T02:12:17.449Z,43.10
2022-10-17T02:22:17.473Z,44.00
2022-10-17T02:32:17.510Z,46.30
2022-10-17T02:42:17.482Z,46.40
2022-10-17T02:52:17.453Z,44.60
2022-10-17T03:02:17.492Z,44.70
2022-10-17T03:12:17.490Z,42.60
2022-10-17T03:22:17.550Z,44.80
2022-10-17T03:32:17.654Z,45.10
2022-10-17T03:42:17.502Z,42.80
2022-10-17T03:52:17.489Z,41.60
2022-10-17T04:02:17.506Z,42.90
2022-10-17T04:12:17.572Z,45.40
2022-10-17T04:22:17.504Z,43.20
2022-10-17T04:32:17.502Z,42.80
2022-10-17T04:42:17.502Z,44.30
2022-10-17T04:52:17.516Z,43.80
2022-10-17T05:02:17.525Z,40.40
2022-10-17T05:12:17.544Z,43.60
2022-10-17T05:22:17.559Z,48.90
2022-10-17T05:32:17.520Z,47.70
2022-10-17T05:42:17.528Z,47.10
2022-10-17T05:52:17.566Z,43.30
2022-10-17T06:02:17.698Z,45.60
2022-10-17T06:12:17.617Z,39.10
2022-10-17T06:22:17.645Z,42.10
2022-10-17T06:32:17.551Z,39.90
2022-10-17T06:42:17.549Z,40.70
2022-10-17T06:52:17.570Z,39.00
2022-10-17T07:02:17.560Z,38.20
2022-10-17T07:22:17.585Z,33.00
2022-10-17T07:32:17.575Z,34.20
2022-10-17T07:42:17.581Z,36.70
2022-10-17T07:52:17.596Z,35.50
2022-10-17T08:02:17.587Z,37.60
2022-10-17T08:12:18.596Z,34.40
2022-10-17T08:22:17.609Z,36.70
2022-10-17T08:32:17.609Z,33.40
2022-10-17T08:42:17.606Z,33.70
2022-10-17T08:52:17.608Z,34.30
2022-10-17T09:02:17.632Z,32.20
2022-10-17T09:12:17.697Z,31.60
2022-10-17T09:22:17.629Z,29.10
2022-10-17T09:32:17.623Z,31.70
2022-10-17T09:42:17.629Z,28.60
2022-10-17T09:52:17.634Z,28.40
2022-10-17T10:02:17.645Z,25.60
2022-10-17T10:12:17.660Z,30.40
2022-10-17T10:22:17.643Z,27.50
2022-10-17T10:32:17.653Z,25.50
2022-10-17T10:42:17.655Z,23.50
2022-10-17T10:52:17.672Z,24.80
2022-10-17T11:02:17.657Z,22.70
2022-10-17T11:12:17.666Z,25.50
2022-10-17T11:22:17.678Z,23.30
2022-10-17T11:32:17.677Z,20.40
2022-10-17T11:42:17.698Z,20.60
2022-10-17T11:52:37.378Z,19.20
2022-10-17T12:02:17.691Z,18.60
2022-10-17T12:12:17.701Z,18.90
2022-10-17T12:22:17.711Z,17.10
2022-10-17T12:32:17.695Z,18.90
2022-10-17T12:42:17.707Z,16.20
2022-10-17T12:52:17.790Z,17.00
2022-10-17T13:02:17.713Z,16.40
2022-10-17T13:12:17.725Z,16.20
2022-10-17T13:22:17.742Z,16.60
2022-10-17T13:32:17.738Z,18.90
2022-10-17T13:42:17.733Z,17.30
2022-10-17T13:52:17.761Z,16.80
2022-10-17T14:02:17.752Z,19.00
2022-10-17T14:12:17.753Z,20.00
2022-10-17T14:22:17.754Z,15.70
2022-10-17T14:32:17.767Z,16.70
2022-10-17T14:42:17.766Z,15.80
2022-10-17T14:52:18.798Z,16.50
2022-10-17T15:02:17.781Z,18.10
2022-10-17T15:12:17.784Z,21.30
2022-10-17T15:22:17.806Z,16.90
2022-10-17T15:32:17.808Z,19.00
2022-10-17T15:42:17.891Z,17.90
2022-10-17T15:52:17.789Z,16.60
2022-10-17T16:02:17.809Z,74.70
2022-10-17T16:28:46.167Z,24.80
2022-10-17T16:38:44.622Z,22.90
2022-10-17T16:48:44.658Z,30.40
2022-10-17T16:58:44.619Z,18.50
2022-10-17T17:08:44.631Z,19.10
2022-10-17T17:18:44.678Z,20.20
2022-10-17T17:28:44.694Z,22.70
2022-10-17T17:38:44.647Z,18.00
2022-10-17T17:48:44.669Z,18.00
2022-10-17T17:58:44.669Z,14.60
2022-10-17T18:08:44.675Z,16.10
2022-10-17T18:18:44.673Z,17.00
2022-10-17T18:28:44.702Z,16.30
2022-10-17T18:38:44.689Z,19.20
2022-10-17T18:48:44.714Z,16.40
2022-10-17T18:58:44.693Z,18.70
2022-10-17T19:08:44.702Z,20.10
2022-10-17T19:18:44.692Z,22.40
2022-10-17T19:28:44.762Z,20.70
2022-10-17T19:38:44.691Z,15.70
2022-10-17T19:48:44.703Z,16.60
2022-10-17T19:58:44.722Z,21.20
2022-10-17T20:08:44.747Z,16.30
2022-10-17T20:18:44.719Z,18.70
2022-10-17T20:28:44.816Z,17.90
2022-10-17T20:38:44.748Z,15.60
2022-10-17T20:48:44.745Z,15.80
2022-10-17T20:58:44.749Z,20.20
2022-10-17T21:08:44.733Z,15.80
2022-10-17T21:18:44.736Z,17.50
2022-10-17T21:28:44.793Z,17.10
2022-10-17T21:38:44.759Z,16.00
2022-10-17T21:48:44.767Z,15.50
2022-10-17T21:58:44.753Z,17.70
2022-10-17T22:08:44.843Z,21.70
2022-10-17T22:18:44.770Z,16.40
2022-10-17T22:28:44.830Z,17.60
2022-10-17T22:38:44.771Z,17.00
2022-10-17T22:48:44.763Z,21.50
2022-10-17T22:58:44.773Z,27.10
2022-10-17T23:08:44.799Z,18.80
2022-10-17T23:18:44.784Z,23.20
2022-10-17T23:28:44.814Z,19.30
2022-10-17T23:38:44.815Z,17.10
2022-10-17T23:48:44.792Z,15.30
2022-10-17T23:58:44.838Z,18.40
